sensor_id;sensor_type;location;lat;lon;timestamp;temperature;humidity
18083;DHT22;9168;51.194;6.840;2023-02-01T00:00:15;6.30;99.90
18083;DHT22;9168;51.194;6.840;2023-02-01T00:02:42;6.30;99.90
18083;DHT22;9168;51.194;6.840;2023-02-01T00:05:10;6.30;99.90
18083;DHT22;9168;51.194;6.840;2023-02-01T00:07:37;6.30;99.90
18083;DHT22;9168;51.194;6.840;2023-02-01T00:10:05;6.40;99.90
18083;DHT22;9168;51.194;6.840;2023-02-01T00:12:32;6.30;99.90
18083;DHT22;9168;51.194;6.840;2023-02-01T00:15:01;6.30;99.90
18083;DHT22;9168;51.194;6.840;2023-02-01T00:17:27;6.40;99.90
18083;DHT22;9168;51.194;6.840;2023-02-01T00:19:54;6.40;99.90
18083;DHT22;9168;51.194;6.840;2023-02-01T00:22:21;6.40;99.90
18083;DHT22;9168;51.194;6.840;2023-02-01T00:24:48;6.40;99.90
18083;DHT22;9168;51.194;6.840;2023-02-01T00:27:15;6.40;99.90
18083;DHT22;9168;51.194;6.840;2023-02-01T00:29:45;6.40;99.90
18083;DHT22;9168;51.194;6.840;2023-02-01T00:32:14;6.40;99.90
18083;DHT22;9168;51.194;6.840;2023-02-01T00:34:40;6.40;99.90
18083;DHT22;9168;51.194;6.840;2023-02-01T00:37:07;6.40;99.90
18083;DHT22;9168;51.194;6.840;2023-02-01T00:39:34;6.30;99.90
18083;DHT22;9168;51.194;6.840;2023-02-01T00:42:01;6.40;99.90
18083;DHT22;9168;51.194;6.840;2023-02-01T00:44:29;6.40;99.90
18083;DHT22;9168;51.194;6.840;2023-02-01T00:46:59;6.40;99.90
18083;DHT22;9168;51.194;6.840;2023-02-01T00:49:28;6.40;99.90
18083;DHT22;9168;51.194;6.840;2023-02-01T00:51:55;6.40;99.90
18083;DHT22;9168;51.194;6.840;2023-02-01T00:54:22;6.40;99.90
18083;DHT22;9168;51.194;6.840;2023-02-01T00:56:49;6.40;99.90
18083;DHT22;9168;51.194;6.840;2023-02-01T00:59:16;6.30;99.90
18083;DHT22;9168;51.194;6.840;2023-02-01T01:01:43;6.40;99.90
18083;DHT22;9168;51.194;6.840;2023-02-01T01:04:10;6.30;99.90
18083;DHT22;9168;51.194;6.840;2023-02-01T01:06:38;6.30;99.90
18083;DHT22;9168;51.194;6.840;2023-02-01T01:09:06;6.30;99.90
18083;DHT22;9168;51.194;6.840;2023-02-01T01:11:35;6.20;99.90
18083;DHT22;9168;51.194;6.840;2023-02-01T01:14:03;6.20;99.90
18083;DHT22;9168;51.194;6.840;2023-02-01T01:16:31;6.20;99.90
18083;DHT22;9168;51.194;6.840;2023-02-01T01:21:33;6.20;99.90
18083;DHT22;9168;51.194;6.840;2023-02-01T01:24:02;6.20;99.90
18083;DHT22;9168;51.194;6.840;2023-02-01T01:26:29;6.20;99.90
18083;DHT22;9168;51.194;6.840;2023-02-01T01:28:58;6.20;99.90
18083;DHT22;9168;51.194;6.840;2023-02-01T01:31:25;6.10;99.90
18083;DHT22;9168;51.194;6.840;2023-02-01T01:33:54;6.20;99.90
18083;DHT22;9168;51.194;6.840;2023-02-01T01:36:22;6.20;99.90
18083;DHT22;9168;51.194;6.840;2023-02-01T01:38:49;6.20;99.90
18083;DHT22;9168;51.194;6.840;2023-02-01T01:41:19;6.20;99.90
18083;DHT22;9168;51.194;6.840;2023-02-01T01:43:49;6.20;99.90
18083;DHT22;9168;51.194;6.840;2023-02-01T01:46:17;6.20;99.90
18083;DHT22;9168;51.194;6.840;2023-02-01T01:48:45;6.20;99.90
18083;DHT22;9168;51.194;6.840;2023-02-01T01:51:15;6.20;99.90
18083;DHT22;9168;51.194;6.840;2023-02-01T01:53:47;6.20;99.90
18083;DHT22;9168;51.194;6.840;2023-02-01T01:56:14;6.10;99.90
18083;DHT22;9168;51.194;6.840;2023-02-01T01:58:43;6.10;99.90
18083;DHT22;9168;51.194;6.840;2023-02-01T02:01:10;6.10;99.90
18083;DHT22;9168;51.194;6.840;2023-02-01T02:03:39;6.10;99.90
18083;DHT22;9168;51.194;6.840;2023-02-01T02:06:15;6.10;99.90
18083;DHT22;9168;51.194;6.840;2023-02-01T02:08:43;6.00;99.90
18083;DHT22;9168;51.194;6.840;2023-02-01T02:11:12;6.10;99.90
18083;DHT22;9168;51.194;6.840;2023-02-01T02:13:43;6.10;99.90
18083;DHT22;9168;51.194;6.840;2023-02-01T02:16:38;6.00;99.90
18083;DHT22;9168;51.194;6.840;2023-02-01T02:22:32;6.00;99.90
18083;DHT22;9168;51.194;6.840;2023-02-01T02:25:28;6.00;99.90
18083;DHT22;9168;51.194;6.840;2023-02-01T02:28:06;5.90;99.90
18083;DHT22;9168;51.194;6.840;2023-02-01T02:30:51;5.90;99.90
18083;DHT22;9168;51.194;6.840;2023-02-01T02:33:41;5.90;99.90
18083;DHT22;9168;51.194;6.840;2023-02-01T02:36:15;5.90;99.90
18083;DHT22;9168;51.194;6.840;2023-02-01T02:38:49;5.90;99.90
18083;DHT22;9168;51.194;6.840;2023-02-01T02:41:32;5.90;99.90
18083;DHT22;9168;51.194;6.840;2023-02-01T02:44:23;5.90;99.90
18083;DHT22;9168;51.194;6.840;2023-02-01T02:47:17;5.80;99.90
18083;DHT22;9168;51.194;6.840;2023-02-01T02:49:57;5.80;99.90
18083;DHT22;9168;51.194;6.840;2023-02-01T02:52:51;5.80;99.90
18083;DHT22;9168;51.194;6.840;2023-02-01T02:55:38;5.80;99.90
18083;DHT22;9168;51.194;6.840;2023-02-01T02:58:07;5.80;99.90
18083;DHT22;9168;51.194;6.840;2023-02-01T03:00:53;5.70;99.90
18083;DHT22;9168;51.194;6.840;2023-02-01T03:03:39;5.70;99.90
18083;DHT22;9168;51.194;6.840;2023-02-01T03:06:25;5.60;99.90
18083;DHT22;9168;51.194;6.840;2023-02-01T03:08:55;5.60;99.90
18083;DHT22;9168;51.194;6.840;2023-02-01T03:11:23;5.60;99.90
18083;DHT22;9168;51.194;6.840;2023-02-01T03:14:14;5.50;99.90
18083;DHT22;9168;51.194;6.840;2023-02-01T03:16:44;5.60;99.90
18083;DHT22;9168;51.194;6.840;2023-02-01T03:19:17;5.60;99.90
18083;DHT22;9168;51.194;6.840;2023-02-01T03:21:49;5.60;99.90
18083;DHT22;9168;51.194;6.840;2023-02-01T03:24:20;5.60;99.90
18083;DHT22;9168;51.194;6.840;2023-02-01T03:27:02;5.60;99.90
18083;DHT22;9168;51.194;6.840;2023-02-01T03:29:36;5.60;99.90
18083;DHT22;9168;51.194;6.840;2023-02-01T03:32:04;5.70;99.90
18083;DHT22;9168;51.194;6.840;2023-02-01T03:34:32;5.70;99.90
18083;DHT22;9168;51.194;6.840;2023-02-01T03:37:02;5.60;99.90
18083;DHT22;9168;51.194;6.840;2023-02-01T03:39:48;5.60;99.90
18083;DHT22;9168;51.194;6.840;2023-02-01T03:42:34;5.70;99.90
18083;DHT22;9168;51.194;6.840;2023-02-01T03:45:24;5.70;99.90
18083;DHT22;9168;51.194;6.840;2023-02-01T03:48:18;5.70;99.90
18083;DHT22;9168;51.194;6.840;2023-02-01T03:50:58;5.80;99.90
18083;DHT22;9168;51.194;6.840;2023-02-01T03:53:31;5.80;99.90
18083;DHT22;9168;51.194;6.840;2023-02-01T03:55:59;5.90;99.90
18083;DHT22;9168;51.194;6.840;2023-02-01T03:58:26;5.90;99.90
18083;DHT22;9168;51.194;6.840;2023-02-01T04:00:54;6.00;99.90
18083;DHT22;9168;51.194;6.840;2023-02-01T04:03:22;6.00;99.90
18083;DHT22;9168;51.194;6.840;2023-02-01T04:05:51;5.90;99.90
18083;DHT22;9168;51.194;6.840;2023-02-01T04:08:18;6.00;99.90
18083;DHT22;9168;51.194;6.840;2023-02-01T04:10:47;6.00;99.90
18083;DHT22;9168;51.194;6.840;2023-02-01T04:13:13;6.00;99.90
18083;DHT22;9168;51.194;6.840;2023-02-01T04:15:40;6.10;99.90
18083;DHT22;9168;51.194;6.840;2023-02-01T04:18:07;6.10;99.90
18083;DHT22;9168;51.194;6.840;2023-02-01T04:20:34;6.10;99.90
18083;DHT22;9168;51.194;6.840;2023-02-01T04:23:01;6.00;99.90
18083;DHT22;9168;51.194;6.840;2023-02-01T04:25:28;6.00;99.90
18083;DHT22;9168;51.194;6.840;2023-02-01T04:27:57;6.00;99.90
18083;DHT22;9168;51.194;6.840;2023-02-01T04:30:25;6.00;99.90
18083;DHT22;9168;51.194;6.840;2023-02-01T04:32:51;6.00;99.90
18083;DHT22;9168;51.194;6.840;2023-02-01T04:35:18;6.00;99.90
18083;DHT22;9168;51.194;6.840;2023-02-01T04:37:45;6.00;99.90
18083;DHT22;9168;51.194;6.840;2023-02-01T04:40:12;5.90;99.90
18083;DHT22;9168;51.194;6.840;2023-02-01T04:42:39;6.00;99.90
18083;DHT22;9168;51.194;6.840;2023-02-01T04:45:08;5.90;99.90
18083;DHT22;9168;51.194;6.840;2023-02-01T04:47:35;5.80;99.90
18083;DHT22;9168;51.194;6.840;2023-02-01T04:50:02;5.80;99.90
18083;DHT22;9168;51.194;6.840;2023-02-01T04:52:31;5.80;99.90
18083;DHT22;9168;51.194;6.840;2023-02-01T04:54:58;5.70;99.90
18083;DHT22;9168;51.194;6.840;2023-02-01T04:57:26;5.70;99.90
18083;DHT22;9168;51.194;6.840;2023-02-01T04:59:53;5.70;99.90
18083;DHT22;9168;51.194;6.840;2023-02-01T05:02:21;5.70;99.90
18083;DHT22;9168;51.194;6.840;2023-02-01T05:04:48;5.80;99.90
18083;DHT22;9168;51.194;6.840;2023-02-01T05:07:16;5.70;99.90
18083;DHT22;9168;51.194;6.840;2023-02-01T05:09:59;5.70;99.90
18083;DHT22;9168;51.194;6.840;2023-02-01T05:16:17;5.70;99.90
18083;DHT22;9168;51.194;6.840;2023-02-01T05:19:06;5.70;99.90
18083;DHT22;9168;51.194;6.840;2023-02-01T05:21:59;5.70;99.90
18083;DHT22;9168;51.194;6.840;2023-02-01T05:24:30;5.70;99.90
18083;DHT22;9168;51.194;6.840;2023-02-01T05:26:57;5.70;99.90
18083;DHT22;9168;51.194;6.840;2023-02-01T05:29:24;5.70;99.90
18083;DHT22;9168;51.194;6.840;2023-02-01T05:31:50;5.60;99.90
18083;DHT22;9168;51.194;6.840;2023-02-01T05:34:21;5.60;99.90
18083;DHT22;9168;51.194;6.840;2023-02-01T05:37:06;5.60;99.90
18083;DHT22;9168;51.194;6.840;2023-02-01T05:39:45;5.70;99.90
18083;DHT22;9168;51.194;6.840;2023-02-01T05:42:12;5.60;99.90
18083;DHT22;9168;51.194;6.840;2023-02-01T05:44:38;5.70;99.90
18083;DHT22;9168;51.194;6.840;2023-02-01T05:47:05;5.60;99.90
18083;DHT22;9168;51.194;6.840;2023-02-01T05:49:34;5.60;99.90
18083;DHT22;9168;51.194;6.840;2023-02-01T05:52:00;5.60;99.90
18083;DHT22;9168;51.194;6.840;2023-02-01T05:54:27;5.60;99.90
18083;DHT22;9168;51.194;6.840;2023-02-01T05:56:54;5.60;99.90
18083;DHT22;9168;51.194;6.840;2023-02-01T05:59:21;5.60;99.90
18083;DHT22;9168;51.194;6.840;2023-02-01T06:01:48;5.60;99.90
18083;DHT22;9168;51.194;6.840;2023-02-01T06:04:15;5.50;99.90
18083;DHT22;9168;51.194;6.840;2023-02-01T06:06:43;5.50;99.90
18083;DHT22;9168;51.194;6.840;2023-02-01T06:09:10;5.50;99.90
18083;DHT22;9168;51.194;6.840;2023-02-01T06:11:37;5.50;99.90
18083;DHT22;9168;51.194;6.840;2023-02-01T06:14:03;5.50;99.90
18083;DHT22;9168;51.194;6.840;2023-02-01T06:16:33;5.40;99.90
18083;DHT22;9168;51.194;6.840;2023-02-01T06:19:00;5.50;99.90
18083;DHT22;9168;51.194;6.840;2023-02-01T06:21:26;5.50;99.90
18083;DHT22;9168;51.194;6.840;2023-02-01T06:23:55;5.40;99.90
18083;DHT22;9168;51.194;6.840;2023-02-01T06:26:23;5.50;99.90
18083;DHT22;9168;51.194;6.840;2023-02-01T06:28:50;5.50;99.90
18083;DHT22;9168;51.194;6.840;2023-02-01T06:31:16;5.50;99.90
18083;DHT22;9168;51.194;6.840;2023-02-01T06:33:43;5.60;99.90
18083;DHT22;9168;51.194;6.840;2023-02-01T06:36:12;5.60;99.90
18083;DHT22;9168;51.194;6.840;2023-02-01T06:38:41;5.70;99.90
18083;DHT22;9168;51.194;6.840;2023-02-01T06:41:10;5.70;99.90
18083;DHT22;9168;51.194;6.840;2023-02-01T06:43:37;5.70;99.90
18083;DHT22;9168;51.194;6.840;2023-02-01T06:46:05;5.80;99.90
18083;DHT22;9168;51.194;6.840;2023-02-01T06:48:33;5.80;99.90
18083;DHT22;9168;51.194;6.840;2023-02-01T06:51:00;5.80;99.90
18083;DHT22;9168;51.194;6.840;2023-02-01T06:53:27;5.80;99.90
18083;DHT22;9168;51.194;6.840;2023-02-01T06:55:55;5.80;99.90
18083;DHT22;9168;51.194;6.840;2023-02-01T06:58:23;5.90;99.90
18083;DHT22;9168;51.194;6.840;2023-02-01T07:00:50;5.90;99.90
18083;DHT22;9168;51.194;6.840;2023-02-01T07:03:19;5.90;99.90
18083;DHT22;9168;51.194;6.840;2023-02-01T07:05:46;6.00;99.90
18083;DHT22;9168;51.194;6.840;2023-02-01T07:08:14;6.00;99.90
18083;DHT22;9168;51.194;6.840;2023-02-01T07:10:40;6.00;99.90
18083;DHT22;9168;51.194;6.840;2023-02-01T07:13:07;6.00;99.90
18083;DHT22;9168;51.194;6.840;2023-02-01T07:15:36;6.00;99.90
18083;DHT22;9168;51.194;6.840;2023-02-01T07:18:03;6.00;99.90
18083;DHT22;9168;51.194;6.840;2023-02-01T07:20:30;6.00;99.90
18083;DHT22;9168;51.194;6.840;2023-02-01T07:22:57;6.00;99.90
18083;DHT22;9168;51.194;6.840;2023-02-01T07:25:24;6.00;99.90
18083;DHT22;9168;51.194;6.840;2023-02-01T07:28:16;6.00;99.90
18083;DHT22;9168;51.194;6.840;2023-02-01T07:30:56;6.00;99.90
18083;DHT22;9168;51.194;6.840;2023-02-01T07:33:51;6.00;99.90
18083;DHT22;9168;51.194;6.840;2023-02-01T07:36:35;6.00;99.90
18083;DHT22;9168;51.194;6.840;2023-02-01T07:39:10;6.00;99.90
18083;DHT22;9168;51.194;6.840;2023-02-01T07:41:49;6.10;99.90
18083;DHT22;9168;51.194;6.840;2023-02-01T07:44:19;6.10;99.90
18083;DHT22;9168;51.194;6.840;2023-02-01T07:46:55;6.10;99.90
18083;DHT22;9168;51.194;6.840;2023-02-01T07:49:27;6.10;99.90
18083;DHT22;9168;51.194;6.840;2023-02-01T07:52:04;6.10;99.90
18083;DHT22;9168;51.194;6.840;2023-02-01T07:54:30;6.10;99.90
18083;DHT22;9168;51.194;6.840;2023-02-01T07:56:57;6.20;99.90
18083;DHT22;9168;51.194;6.840;2023-02-01T07:59:24;6.10;99.90
18083;DHT22;9168;51.194;6.840;2023-02-01T08:01:52;6.20;99.90
18083;DHT22;9168;51.194;6.840;2023-02-01T08:04:18;6.20;99.90
18083;DHT22;9168;51.194;6.840;2023-02-01T08:06:45;6.20;99.90
18083;DHT22;9168;51.194;6.840;2023-02-01T08:09:12;6.20;99.90
18083;DHT22;9168;51.194;6.840;2023-02-01T08:11:39;6.20;99.90
18083;DHT22;9168;51.194;6.840;2023-02-01T08:14:06;6.20;99.90
18083;DHT22;9168;51.194;6.840;2023-02-01T08:16:33;6.20;99.90
18083;DHT22;9168;51.194;6.840;2023-02-01T08:19:04;6.20;99.90
18083;DHT22;9168;51.194;6.840;2023-02-01T08:21:30;6.20;99.90
18083;DHT22;9168;51.194;6.840;2023-02-01T08:24:03;6.20;99.90
18083;DHT22;9168;51.194;6.840;2023-02-01T08:26:30;6.20;99.90
18083;DHT22;9168;51.194;6.840;2023-02-01T08:28:59;6.20;99.90
18083;DHT22;9168;51.194;6.840;2023-02-01T08:31:28;6.20;99.90
18083;DHT22;9168;51.194;6.840;2023-02-01T08:33:56;6.30;99.90
18083;DHT22;9168;51.194;6.840;2023-02-01T08:36:27;6.30;99.90
18083;DHT22;9168;51.194;6.840;2023-02-01T08:38:55;6.30;99.90
18083;DHT22;9168;51.194;6.840;2023-02-01T08:41:24;6.30;99.90
18083;DHT22;9168;51.194;6.840;2023-02-01T08:43:51;6.30;99.90
18083;DHT22;9168;51.194;6.840;2023-02-01T08:46:20;6.30;99.90
18083;DHT22;9168;51.194;6.840;2023-02-01T08:49:05;6.30;99.90
18083;DHT22;9168;51.194;6.840;2023-02-01T08:51:42;6.30;99.90
18083;DHT22;9168;51.194;6.840;2023-02-01T08:54:12;6.30;99.90
18083;DHT22;9168;51.194;6.840;2023-02-01T08:56:45;6.40;99.90
18083;DHT22;9168;51.194;6.840;2023-02-01T08:59:24;6.40;99.90
18083;DHT22;9168;51.194;6.840;2023-02-01T09:02:18;6.40;99.90
18083;DHT22;9168;51.194;6.840;2023-02-01T09:04:51;6.40;99.90
18083;DHT22;9168;51.194;6.840;2023-02-01T09:10:26;6.50;99.90
18083;DHT22;9168;51.194;6.840;2023-02-01T09:13:01;6.50;99.90
18083;DHT22;9168;51.194;6.840;2023-02-01T09:15:50;6.50;99.90
18083;DHT22;9168;51.194;6.840;2023-02-01T09:18:17;6.50;99.90
18083;DHT22;9168;51.194;6.840;2023-02-01T09:20:43;6.50;99.90
18083;DHT22;9168;51.194;6.840;2023-02-01T09:23:18;6.50;99.90
18083;DHT22;9168;51.194;6.840;2023-02-01T09:26:04;6.50;99.90
18083;DHT22;9168;51.194;6.840;2023-02-01T09:28:32;6.50;99.90
18083;DHT22;9168;51.194;6.840;2023-02-01T09:31:00;6.50;99.90
18083;DHT22;9168;51.194;6.840;2023-02-01T09:33:28;6.50;99.90
18083;DHT22;9168;51.194;6.840;2023-02-01T09:35:56;6.50;99.90
18083;DHT22;9168;51.194;6.840;2023-02-01T09:38:23;6.50;99.90
18083;DHT22;9168;51.194;6.840;2023-02-01T09:40:51;6.60;99.90
18083;DHT22;9168;51.194;6.840;2023-02-01T09:43:29;6.50;99.90
18083;DHT22;9168;51.194;6.840;2023-02-01T09:46:16;6.60;99.90
18083;DHT22;9168;51.194;6.840;2023-02-01T09:48:45;6.60;99.90
18083;DHT22;9168;51.194;6.840;2023-02-01T09:51:16;6.60;99.90
18083;DHT22;9168;51.194;6.840;2023-02-01T09:53:45;6.60;99.90
18083;DHT22;9168;51.194;6.840;2023-02-01T09:56:18;6.50;99.90
18083;DHT22;9168;51.194;6.840;2023-02-01T09:58:54;6.50;99.90
18083;DHT22;9168;51.194;6.840;2023-02-01T10:01:24;6.50;99.90
18083;DHT22;9168;51.194;6.840;2023-02-01T10:03:56;6.50;99.90
18083;DHT22;9168;51.194;6.840;2023-02-01T10:09:25;6.40;99.90
18083;DHT22;9168;51.194;6.840;2023-02-01T10:12:13;6.40;99.90
18083;DHT22;9168;51.194;6.840;2023-02-01T10:14:59;6.40;99.90
18083;DHT22;9168;51.194;6.840;2023-02-01T10:17:48;6.40;99.90
18083;DHT22;9168;51.194;6.840;2023-02-01T10:20:21;6.40;99.90
18083;DHT22;9168;51.194;6.840;2023-02-01T10:22:57;6.50;99.90
18083;DHT22;9168;51.194;6.840;2023-02-01T10:25:27;6.50;99.90
18083;DHT22;9168;51.194;6.840;2023-02-01T10:27:56;6.50;99.90
18083;DHT22;9168;51.194;6.840;2023-02-01T10:30:27;6.50;99.90
18083;DHT22;9168;51.194;6.840;2023-02-01T10:33:00;6.50;99.90
18083;DHT22;9168;51.194;6.840;2023-02-01T10:35:31;6.60;99.90
18083;DHT22;9168;51.194;6.840;2023-02-01T10:37:59;6.50;99.90
18083;DHT22;9168;51.194;6.840;2023-02-01T10:40:27;6.60;99.90
18083;DHT22;9168;51.194;6.840;2023-02-01T10:42:56;6.60;99.90
18083;DHT22;9168;51.194;6.840;2023-02-01T10:45:28;6.60;99.90
18083;DHT22;9168;51.194;6.840;2023-02-01T10:47:57;6.60;99.90
18083;DHT22;9168;51.194;6.840;2023-02-01T10:50:34;6.60;99.90
18083;DHT22;9168;51.194;6.840;2023-02-01T10:53:05;6.70;99.90
18083;DHT22;9168;51.194;6.840;2023-02-01T10:55:39;6.70;99.90
18083;DHT22;9168;51.194;6.840;2023-02-01T10:58:14;6.70;99.90
18083;DHT22;9168;51.194;6.840;2023-02-01T11:00:46;6.70;99.90
18083;DHT22;9168;51.194;6.840;2023-02-01T11:03:41;6.70;99.90
18083;DHT22;9168;51.194;6.840;2023-02-01T11:06:18;6.70;99.90
18083;DHT22;9168;51.194;6.840;2023-02-01T11:08:48;6.70;99.90
18083;DHT22;9168;51.194;6.840;2023-02-01T11:11:15;6.70;99.90
18083;DHT22;9168;51.194;6.840;2023-02-01T11:13:42;6.80;99.90
18083;DHT22;9168;51.194;6.840;2023-02-01T11:16:14;6.80;99.90
18083;DHT22;9168;51.194;6.840;2023-02-01T11:18:41;6.90;99.90
18083;DHT22;9168;51.194;6.840;2023-02-01T11:21:09;6.80;99.90
18083;DHT22;9168;51.194;6.840;2023-02-01T11:23:42;6.80;99.90
18083;DHT22;9168;51.194;6.840;2023-02-01T11:26:11;6.80;99.90
18083;DHT22;9168;51.194;6.840;2023-02-01T11:28:43;6.90;99.90
18083;DHT22;9168;51.194;6.840;2023-02-01T11:31:16;6.90;99.90
18083;DHT22;9168;51.194;6.840;2023-02-01T11:33:48;7.00;99.90
18083;DHT22;9168;51.194;6.840;2023-02-01T11:36:17;6.90;99.90
18083;DHT22;9168;51.194;6.840;2023-02-01T11:38:47;6.90;99.90
18083;DHT22;9168;51.194;6.840;2023-02-01T11:41:22;7.00;99.90
18083;DHT22;9168;51.194;6.840;2023-02-01T11:43:54;7.00;99.90
18083;DHT22;9168;51.194;6.840;2023-02-01T11:46:28;7.00;99.90
18083;DHT22;9168;51.194;6.840;2023-02-01T11:48:56;7.00;99.90
18083;DHT22;9168;51.194;6.840;2023-02-01T11:51:37;7.10;99.90
18083;DHT22;9168;51.194;6.840;2023-02-01T11:54:17;7.10;99.90
18083;DHT22;9168;51.194;6.840;2023-02-01T11:57:00;7.10;99.90
18083;DHT22;9168;51.194;6.840;2023-02-01T11:59:45;7.10;99.90
18083;DHT22;9168;51.194;6.840;2023-02-01T12:02:34;7.20;99.90
18083;DHT22;9168;51.194;6.840;2023-02-01T12:05:20;7.20;99.90
18083;DHT22;9168;51.194;6.840;2023-02-01T12:08:01;7.20;99.90
18083;DHT22;9168;51.194;6.840;2023-02-01T12:10:38;7.20;99.90
18083;DHT22;9168;51.194;6.840;2023-02-01T12:13:20;7.20;99.90
18083;DHT22;9168;51.194;6.840;2023-02-01T12:15:58;7.30;99.90
18083;DHT22;9168;51.194;6.840;2023-02-01T12:21:50;7.30;99.90
18083;DHT22;9168;51.194;6.840;2023-02-01T12:24:30;7.40;99.90
18083;DHT22;9168;51.194;6.840;2023-02-01T12:27:15;7.40;99.90
18083;DHT22;9168;51.194;6.840;2023-02-01T12:29:58;7.40;99.90
18083;DHT22;9168;51.194;6.840;2023-02-01T12:32:41;7.40;99.90
18083;DHT22;9168;51.194;6.840;2023-02-01T12:35:25;7.40;99.90
18083;DHT22;9168;51.194;6.840;2023-02-01T12:38:08;7.40;99.90
18083;DHT22;9168;51.194;6.840;2023-02-01T12:40:50;7.40;99.90
18083;DHT22;9168;51.194;6.840;2023-02-01T12:43:20;7.40;99.90
18083;DHT22;9168;51.194;6.840;2023-02-01T12:45:55;7.40;99.90
18083;DHT22;9168;51.194;6.840;2023-02-01T12:48:28;7.30;99.90
18083;DHT22;9168;51.194;6.840;2023-02-01T12:51:01;7.30;99.90
18083;DHT22;9168;51.194;6.840;2023-02-01T12:53:36;7.40;99.90
18083;DHT22;9168;51.194;6.840;2023-02-01T12:56:10;7.40;99.90
18083;DHT22;9168;51.194;6.840;2023-02-01T12:58:42;7.40;99.90
18083;DHT22;9168;51.194;6.840;2023-02-01T13:01:16;7.30;99.90
18083;DHT22;9168;51.194;6.840;2023-02-01T13:03:52;7.40;99.90
18083;DHT22;9168;51.194;6.840;2023-02-01T13:06:24;7.40;99.90
18083;DHT22;9168;51.194;6.840;2023-02-01T13:08:56;7.40;99.90
18083;DHT22;9168;51.194;6.840;2023-02-01T13:11:27;7.40;99.90
18083;DHT22;9168;51.194;6.840;2023-02-01T13:14:02;7.50;99.90
18083;DHT22;9168;51.194;6.840;2023-02-01T13:16:32;7.40;99.90
18083;DHT22;9168;51.194;6.840;2023-02-01T13:19:06;7.50;99.90
18083;DHT22;9168;51.194;6.840;2023-02-01T13:21:42;7.50;99.90
18083;DHT22;9168;51.194;6.840;2023-02-01T13:24:30;7.50;99.90
18083;DHT22;9168;51.194;6.840;2023-02-01T13:27:00;7.50;99.90
18083;DHT22;9168;51.194;6.840;2023-02-01T13:29:28;7.50;99.90
18083;DHT22;9168;51.194;6.840;2023-02-01T13:32:21;7.50;99.90
18083;DHT22;9168;51.194;6.840;2023-02-01T13:38:23;7.50;99.90
18083;DHT22;9168;51.194;6.840;2023-02-01T13:41:07;7.50;99.90
18083;DHT22;9168;51.194;6.840;2023-02-01T13:43:39;7.50;99.90
18083;DHT22;9168;51.194;6.840;2023-02-01T13:46:09;7.60;99.90
18083;DHT22;9168;51.194;6.840;2023-02-01T13:48:41;7.60;99.90
18083;DHT22;9168;51.194;6.840;2023-02-01T13:51:13;7.60;99.90
18083;DHT22;9168;51.194;6.840;2023-02-01T13:53:46;7.60;99.90
18083;DHT22;9168;51.194;6.840;2023-02-01T13:56:16;7.50;99.90
18083;DHT22;9168;51.194;6.840;2023-02-01T13:58:45;7.60;99.90
18083;DHT22;9168;51.194;6.840;2023-02-01T14:01:42;7.60;99.90
18083;DHT22;9168;51.194;6.840;2023-02-01T14:07:18;7.60;99.90
18083;DHT22;9168;51.194;6.840;2023-02-01T14:09:46;7.60;99.90
18083;DHT22;9168;51.194;6.840;2023-02-01T14:12:43;7.70;99.90
18083;DHT22;9168;51.194;6.840;2023-02-01T14:15:21;7.70;99.90
18083;DHT22;9168;51.194;6.840;2023-02-01T14:17:48;7.70;99.90
18083;DHT22;9168;51.194;6.840;2023-02-01T14:20:48;7.70;99.90
18083;DHT22;9168;51.194;6.840;2023-02-01T14:23:21;7.80;99.90
18083;DHT22;9168;51.194;6.840;2023-02-01T14:26:12;7.70;99.90
18083;DHT22;9168;51.194;6.840;2023-02-01T14:28:43;7.80;99.90
18083;DHT22;9168;51.194;6.840;2023-02-01T14:31:32;7.80;99.90
18083;DHT22;9168;51.194;6.840;2023-02-01T14:34:02;7.80;99.90
18083;DHT22;9168;51.194;6.840;2023-02-01T14:36:47;7.80;99.90
18083;DHT22;9168;51.194;6.840;2023-02-01T14:39:33;7.80;99.90
18083;DHT22;9168;51.194;6.840;2023-02-01T14:42:05;7.80;99.90
18083;DHT22;9168;51.194;6.840;2023-02-01T14:44:41;7.80;99.90
18083;DHT22;9168;51.194;6.840;2023-02-01T14:47:11;7.80;99.90
18083;DHT22;9168;51.194;6.840;2023-02-01T14:49:56;7.80;99.90
18083;DHT22;9168;51.194;6.840;2023-02-01T14:52:29;7.80;99.90
18083;DHT22;9168;51.194;6.840;2023-02-01T14:55:01;7.80;99.90
18083;DHT22;9168;51.194;6.840;2023-02-01T14:57:34;7.80;99.90
18083;DHT22;9168;51.194;6.840;2023-02-01T15:00:15;7.90;99.90
18083;DHT22;9168;51.194;6.840;2023-02-01T15:02:44;7.90;99.90
18083;DHT22;9168;51.194;6.840;2023-02-01T15:05:29;7.90;99.90
18083;DHT22;9168;51.194;6.840;2023-02-01T15:08:13;7.90;99.90
18083;DHT22;9168;51.194;6.840;2023-02-01T15:10:44;7.90;99.90
18083;DHT22;9168;51.194;6.840;2023-02-01T15:13:20;7.90;99.90
18083;DHT22;9168;51.194;6.840;2023-02-01T15:16:01;7.90;99.90
18083;DHT22;9168;51.194;6.840;2023-02-01T15:18:29;7.90;99.90
18083;DHT22;9168;51.194;6.840;2023-02-01T15:20:57;8.00;99.90
18083;DHT22;9168;51.194;6.840;2023-02-01T15:23:24;7.90;99.90
18083;DHT22;9168;51.194;6.840;2023-02-01T15:25:51;7.90;99.90
18083;DHT22;9168;51.194;6.840;2023-02-01T15:28:19;7.90;99.90
18083;DHT22;9168;51.194;6.840;2023-02-01T15:30:55;7.90;99.90
18083;DHT22;9168;51.194;6.840;2023-02-01T15:33:23;7.90;99.90
18083;DHT22;9168;51.194;6.840;2023-02-01T15:35:51;7.90;99.90
18083;DHT22;9168;51.194;6.840;2023-02-01T15:38:37;7.90;99.90
18083;DHT22;9168;51.194;6.840;2023-02-01T15:41:07;7.90;99.90
18083;DHT22;9168;51.194;6.840;2023-02-01T15:43:41;7.90;99.90
18083;DHT22;9168;51.194;6.840;2023-02-01T15:46:11;7.90;99.90
18083;DHT22;9168;51.194;6.840;2023-02-01T15:48:43;7.90;99.90
18083;DHT22;9168;51.194;6.840;2023-02-01T15:51:18;7.90;99.90
18083;DHT22;9168;51.194;6.840;2023-02-01T15:53:49;7.90;99.90
18083;DHT22;9168;51.194;6.840;2023-02-01T15:56:21;7.80;99.90
18083;DHT22;9168;51.194;6.840;2023-02-01T15:58:53;7.80;99.90
18083;DHT22;9168;51.194;6.840;2023-02-01T16:01:23;7.80;99.90
18083;DHT22;9168;51.194;6.840;2023-02-01T16:04:05;7.90;99.90
18083;DHT22;9168;51.194;6.840;2023-02-01T16:06:45;7.80;99.90
18083;DHT22;9168;51.194;6.840;2023-02-01T16:09:14;7.80;99.90
18083;DHT22;9168;51.194;6.840;2023-02-01T16:11:48;7.80;99.90
18083;DHT22;9168;51.194;6.840;2023-02-01T16:14:17;7.80;99.90
18083;DHT22;9168;51.194;6.840;2023-02-01T16:16:45;7.80;99.90
18083;DHT22;9168;51.194;6.840;2023-02-01T16:19:12;7.80;99.90
18083;DHT22;9168;51.194;6.840;2023-02-01T16:21:38;7.80;99.90
18083;DHT22;9168;51.194;6.840;2023-02-01T16:24:06;7.80;99.90
18083;DHT22;9168;51.194;6.840;2023-02-01T16:26:34;7.80;99.90
18083;DHT22;9168;51.194;6.840;2023-02-01T16:29:01;7.80;99.90
18083;DHT22;9168;51.194;6.840;2023-02-01T16:31:35;7.80;99.90
18083;DHT22;9168;51.194;6.840;2023-02-01T16:34:03;7.80;99.90
18083;DHT22;9168;51.194;6.840;2023-02-01T16:36:32;7.80;99.90
18083;DHT22;9168;51.194;6.840;2023-02-01T16:38:59;7.80;99.90
18083;DHT22;9168;51.194;6.840;2023-02-01T16:41:27;7.80;99.90
18083;DHT22;9168;51.194;6.840;2023-02-01T16:43:55;7.80;99.90
18083;DHT22;9168;51.194;6.840;2023-02-01T16:46:24;7.80;99.90
18083;DHT22;9168;51.194;6.840;2023-02-01T16:48:54;7.80;99.90
18083;DHT22;9168;51.194;6.840;2023-02-01T16:51:23;7.80;99.90
18083;DHT22;9168;51.194;6.840;2023-02-01T16:53:51;7.90;99.90
18083;DHT22;9168;51.194;6.840;2023-02-01T16:56:19;7.90;99.90
18083;DHT22;9168;51.194;6.840;2023-02-01T16:58:47;7.80;99.90
18083;DHT22;9168;51.194;6.840;2023-02-01T17:01:15;7.80;99.90